Time;durP1;ratioP1;P1;durP2;ratioP2;P2;SDS_P1;SDS_P2;PMS_P1;PMS_P2;Temp;Humidity;BMP_temperature;BMP_pressure;BME280_temperature;BME280_humidity;BME280_pressure;Samples;Min_cycle;Max_cycle;Signal;HPM_P1;HPM_P2
2020/12/26 00:00:28;;;;;;;8.78;2.67;;;;;;;1.49;84.58;101060.05;1630564;86;21180;-76
2020/12/26 00:02:54;;;;;;;8.98;2.92;;;;;;;1.48;84.63;101050.67;1627538;86;21175;-76
2020/12/26 00:05:20;;;;;;;6.58;3.17;;;;;;;1.49;84.66;101053.67;1638313;86;21195;-76
2020/12/26 00:07:47;;;;;;;4.47;2.42;;;;;;;1.49;84.67;101059.63;1636254;85;21179;-76
2020/12/26 00:10:13;;;;;;;4.00;2.60;;;;;;;1.50;84.51;101053.72;1634053;86;21175;-76
2020/12/26 00:12:39;;;;;;;4.05;2.08;;;;;;;1.50;84.51;101053.72;1630101;85;21147;-76
2020/12/26 00:15:06;;;;;;;4.33;2.00;;;;;;;1.50;84.64;101063.91;1631571;86;21152;-76
2020/12/26 00:17:32;;;;;;;5.53;2.50;;;;;;;1.49;84.66;101055.81;1636321;85;21548;-76
2020/12/26 00:19:58;;;;;;;7.37;3.42;;;;;;;1.48;84.64;101057.05;1631546;85;21159;-76
2020/12/26 00:22:25;;;;;;;4.28;2.45;;;;;;;1.47;84.67;101052.36;1632693;85;21152;-76
2020/12/26 00:24:51;;;;;;;4.10;1.70;;;;;;;1.48;84.66;101049.40;1640932;85;21170;-76
2020/12/26 00:27:17;;;;;;;5.87;2.37;;;;;;;1.46;84.61;101049.36;1638043;85;21142;-76
2020/12/26 00:29:43;;;;;;;3.65;2.02;;;;;;;1.47;84.68;101050.22;1643823;85;21818;-76
2020/12/26 00:32:10;;;;;;;4.42;1.70;;;;;;;1.45;84.65;101044.22;1633404;85;21156;-76
2020/12/26 00:34:39;;;;;;;7.95;2.52;;;;;;;1.45;84.66;101052.73;1635917;86;21152;-76
2020/12/26 00:37:05;;;;;;;6.35;2.52;;;;;;;1.47;84.73;101049.81;1637096;85;21172;-76
2020/12/26 00:39:32;;;;;;;3.10;2.10;;;;;;;1.45;84.61;101050.59;1634196;85;21150;-76
2020/12/26 00:41:58;;;;;;;5.42;2.22;;;;;;;1.46;84.68;101056.14;1638327;85;22723;-76
2020/12/26 00:44:24;;;;;;;4.62;2.08;;;;;;;1.45;84.73;101051.45;1637706;86;21151;-76
2020/12/26 00:46:51;;;;;;;7.55;2.58;;;;;;;1.46;84.68;101053.59;1635799;86;21156;-76
2020/12/26 00:49:17;;;;;;;6.67;2.50;;;;;;;1.46;84.68;101060.82;1628714;86;21745;-76
2020/12/26 00:51:47;;;;;;;4.85;2.02;;;;;;;1.45;84.65;101056.55;1644835;86;21230;-76
2020/12/26 00:54:14;;;;;;;5.62;2.05;;;;;;;1.43;84.62;101054.37;1647059;85;21364;-76
2020/12/26 00:56:40;;;;;;;3.58;1.82;;;;;;;1.42;84.66;101057.73;1643386;86;22388;-76
2020/12/26 00:59:06;;;;;;;2.45;1.82;;;;;;;1.43;84.67;101063.70;1652499;84;21449;-76
2020/12/26 01:01:33;;;;;;;2.85;1.70;;;;;;;1.41;84.63;101056.42;1658433;84;22450;-76
2020/12/26 01:03:59;;;;;;;6.62;2.40;;;;;;;1.40;84.67;101058.52;1657971;84;21508;-76
2020/12/26 01:06:25;;;;;;;5.17;2.50;;;;;;;1.41;84.71;101050.05;1661609;84;21247;-76
2020/12/26 01:08:51;;;;;;;3.75;2.35;;;;;;;1.43;84.67;101058.59;1663816;84;21234;-76
2020/12/26 01:11:18;;;;;;;7.22;2.92;;;;;;;1.43;84.70;101058.59;1658009;84;21234;-76
2020/12/26 01:13:44;;;;;;;5.92;3.40;;;;;;;1.43;84.68;101061.15;1659491;84;21254;-76
2020/12/26 01:16:12;;;;;;;6.80;2.47;;;;;;;1.42;84.68;101064.52;1646399;84;21214;-76
2020/12/26 01:18:40;;;;;;;4.80;2.12;;;;;;;1.44;84.71;101059.05;1654760;84;21213;-76
2020/12/26 01:21:07;;;;;;;5.58;2.47;;;;;;;1.45;84.70;101056.95;1661870;84;21721;-75
2020/12/26 01:23:34;;;;;;;4.08;2.02;;;;;;;1.47;84.74;101057.86;1666536;84;21572;-75
2020/12/26 01:26:01;;;;;;;4.60;2.02;;;;;;;1.49;84.74;101060.91;1649373;84;21234;-75
2020/12/26 01:28:27;;;;;;;4.40;1.90;;;;;;;1.49;84.65;101062.19;1660544;84;21215;-75
2020/12/26 01:30:55;;;;;;;7.33;2.22;;;;;;;1.50;84.70;101060.09;1668625;84;25276;-75
2020/12/26 01:33:21;;;;;;;11.20;2.10;;;;;;;1.49;84.68;101058.77;1649704;84;21187;-75
2020/12/26 01:35:47;;;;;;;6.62;2.75;;;;;;;1.49;84.65;101055.81;1672776;84;21151;-75
2020/12/26 01:38:14;;;;;;;9.95;3.70;;;;;;;1.51;84.71;101059.67;1665345;84;21619;-75
2020/12/26 01:40:48;;;;;;;9.05;3.58;;;;;;;1.52;84.69;101069.05;1664428;84;25846;-75
2020/12/26 01:43:15;;;;;;;5.50;2.20;;;;;;;1.53;84.70;101067.81;1664334;84;21922;-76
2020/12/26 01:45:41;;;;;;;5.67;2.20;;;;;;;1.55;84.68;101056.39;1664955;84;21395;-76
2020/12/26 01:48:11;;;;;;;3.98;2.00;;;;;;;1.54;84.56;101053.39;1636908;84;21155;-76
2020/12/26 01:50:37;;;;;;;6.17;2.42;;;;;;;1.54;84.67;101055.53;1664577;84;21124;-76
2020/12/26 01:53:04;;;;;;;3.87;2.27;;;;;;;1.53;84.65;101059.31;1650389;84;21111;-76
2020/12/26 01:55:30;;;;;;;4.92;2.72;;;;;;;1.53;84.73;101057.63;1537487;84;10000987;-76
2020/12/26 01:57:58;;;;;;;3.85;1.87;;;;;;;1.53;84.69;101053.80;1654385;84;21288;-76
2020/12/26 02:00:24;;;;;;;8.15;2.08;;;;;;;1.52;84.68;101057.17;1652883;85;21225;-76
2020/12/26 02:02:50;;;;;;;3.83;1.85;;;;;;;1.51;84.70;101063.09;1652001;85;22543;-76
2020/12/26 02:05:17;;;;;;;5.80;2.45;;;;;;;1.52;84.70;101062.27;1652970;85;21218;-76
2020/12/26 02:07:46;;;;;;;5.15;1.72;;;;;;;1.52;84.74;101062.27;1652511;85;21203;-76
2020/12/26 02:10:13;;;;;;;4.50;1.80;;;;;;;1.52;84.68;101062.27;1646704;85;21346;-76
2020/12/26 02:12:40;;;;;;;5.65;1.72;;;;;;;1.52;84.75;101058.86;1645788;86;21554;-76
2020/12/26 02:15:06;;;;;;;6.17;1.82;;;;;;;1.53;84.70;101057.63;1614700;86;21546;-76
2020/12/26 02:17:33;;;;;;;3.40;2.02;;;;;;;1.52;84.69;101053.34;1622946;86;21234;-76
2020/12/26 02:19:59;;;;;;;7.37;2.35;;;;;;;1.55;84.74;101052.57;1633536;86;21161;-76
2020/12/26 02:22:25;;;;;;;4.08;1.87;;;;;;;1.56;84.76;101051.75;1662785;85;21141;-76
2020/12/26 02:24:52;;;;;;;3.80;1.98;;;;;;;1.58;84.75;101051.34;1654609;85;21155;-76
2020/12/26 02:27:18;;;;;;;4.75;1.85;;;;;;;1.59;84.74;101046.30;1648743;85;21111;-76
2020/12/26 02:29:44;;;;;;;2.50;1.70;;;;;;;1.59;84.69;101045.02;1654529;85;21211;-76
2020/12/26 02:32:11;;;;;;;3.83;2.25;;;;;;;1.60;84.66;101044.20;1654675;85;21123;-76
2020/12/26 02:34:37;;;;;;;3.27;1.87;;;;;;;1.59;84.67;101046.70;1653481;86;21659;-76
2020/12/26 02:37:03;;;;;;;2.87;1.70;;;;;;;1.60;84.68;101041.65;1640301;85;21142;-76
2020/12/26 02:39:30;;;;;;;5.12;2.15;;;;;;;1.60;84.66;101043.33;1639770;85;25986;-76
2020/12/26 02:41:56;;;;;;;3.45;2.35;;;;;;;1.60;84.69;101043.33;1653485;85;22004;-76
2020/12/26 02:44:22;;;;;;;9.83;2.20;;;;;;;1.61;84.70;101048.47;1654486;86;21375;-76
2020/12/26 02:46:50;;;;;;;8.75;2.40;;;;;;;1.62;84.73;101054.43;1651591;86;21151;-76
2020/12/26 02:49:18;;;;;;;4.40;2.27;;;;;;;1.63;84.70;101055.75;1650116;85;21158;-76
2020/12/26 02:51:45;;;;;;;3.45;2.20;;;;;;;1.63;84.67;101053.20;1653816;86;21136;-76
2020/12/26 02:54:12;;;;;;;4.00;2.17;;;;;;;1.64;84.65;101051.52;1647041;85;21251;-76
2020/12/26 02:56:39;;;;;;;4.50;1.95;;;;;;;1.61;84.62;101057.39;1645656;85;21238;-76
2020/12/26 02:59:09;;;;;;;4.00;1.87;;;;;;;1.62;84.66;101050.61;1646984;85;21234;-76
2020/12/26 03:01:40;;;;;;;4.83;2.40;;;;;;;1.61;84.65;101053.98;1666330;84;21263;-76
2020/12/26 03:04:07;;;;;;;3.10;1.70;;;;;;;1.60;84.69;101049.30;1685178;83;21225;-76
2020/12/26 03:06:33;;;;;;;5.28;2.15;;;;;;;1.62;84.70;101049.34;1645185;85;21652;-76
2020/12/26 03:09:00;;;;;;;3.87;1.62;;;;;;;1.61;84.70;101056.12;1650322;85;21224;-76
2020/12/26 03:11:26;;;;;;;5.78;2.17;;;;;;;1.63;84.69;101059.57;1655157;85;21213;-76
2020/12/26 03:13:52;;;;;;;8.63;2.77;;;;;;;1.63;84.65;101061.26;1663372;84;21655;-76
2020/12/26 03:16:19;;;;;;;4.67;2.08;;;;;;;1.62;84.64;101065.48;1652134;84;21269;-76
2020/12/26 03:18:46;;;;;;;4.20;2.40;;;;;;;1.63;84.70;101069.77;1665848;84;21239;-76
2020/12/26 03:21:14;;;;;;;2.72;1.62;;;;;;;1.63;84.68;101071.45;1664965;84;21202;-76
2020/12/26 03:23:40;;;;;;;3.50;1.80;;;;;;;1.66;84.71;101070.27;1661957;84;21218;-76
2020/12/26 03:26:07;;;;;;;9.03;2.37;;;;;;;1.65;84.64;101072.36;1664369;84;26219;-76
2020/12/26 03:28:33;;;;;;;3.42;1.25;;;;;;;1.64;84.66;101080.83;1664888;84;21294;-76
2020/12/26 03:30:59;;;;;;;4.53;2.95;;;;;;;1.64;84.66;101081.69;1665396;84;21506;-76
2020/12/26 03:33:25;;;;;;;2.70;1.92;;;;;;;1.66;84.70;101079.19;1656631;84;21241;-76
2020/12/26 03:35:52;;;;;;;3.62;1.90;;;;;;;1.65;84.66;101083.42;1665505;84;21238;-76
2020/12/26 03:38:18;;;;;;;3.40;1.70;;;;;;;1.66;84.67;101090.24;1661717;84;21234;-76
2020/12/26 03:40:44;;;;;;;5.50;2.17;;;;;;;1.68;84.68;101083.91;1661949;84;21667;-76
2020/12/26 03:43:10;;;;;;;4.33;1.72;;;;;;;1.68;84.70;101087.73;1661016;84;21229;-76
2020/12/26 03:45:37;;;;;;;4.05;1.92;;;;;;;1.72;84.71;101094.64;1654089;84;21175;-76
2020/12/26 03:48:03;;;;;;;4.85;2.08;;;;;;;1.72;84.70;101097.20;1660222;84;21215;-76
2020/12/26 03:50:29;;;;;;;2.45;1.82;;;;;;;1.73;84.66;101095.10;1664958;84;21218;-76
2020/12/26 03:52:56;;;;;;;2.08;1.65;;;;;;;1.75;84.65;101101.11;1670201;84;36472;-76
2020/12/26 03:55:23;;;;;;;2.33;1.80;;;;;;;1.75;84.59;101101.52;1674213;84;21245;-76
2020/12/26 03:57:49;;;;;;;5.80;2.37;;;;;;;1.75;84.61;101100.24;1664526;84;21705;-76
2020/12/26 04:00:15;;;;;;;4.65;1.87;;;;;;;1.75;84.65;101096.00;1665111;84;21225;-76
2020/12/26 04:02:42;;;;;;;3.30;1.72;;;;;;;1.75;84.61;101102.38;1651259;84;21214;-76
2020/12/26 04:05:08;;;;;;;3.17;1.80;;;;;;;1.73;84.57;101092.55;1663727;84;21198;-76
2020/12/26 04:07:34;;;;;;;5.35;2.90;;;;;;;1.74;84.64;101098.52;1656782;84;21847;-76
2020/12/26 04:10:00;;;;;;;5.62;2.00;;;;;;;1.73;84.58;101097.65;1666093;84;21194;-76
2020/12/26 04:12:27;;;;;;;3.35;1.77;;;;;;;1.73;84.60;101101.47;1662071;84;21210;-76
2020/12/26 04:14:53;;;;;;;3.72;2.25;;;;;;;1.74;84.64;101104.47;1666792;84;21189;-76
2020/12/26 04:17:22;;;;;;;4.05;2.40;;;;;;;1.75;84.66;101101.11;1669627;84;21211;-76
2020/12/26 04:19:47;;;;;;;4.62;2.12;;;;;;;1.77;84.67;101113.89;1664992;84;21250;-76
2020/12/26 04:22:14;;;;;;;6.70;2.77;;;;;;;1.78;84.61;101111.80;1656830;84;21238;-76
2020/12/26 04:24:40;;;;;;;5.45;2.35;;;;;;;1.78;84.59;101105.42;1653172;84;21210;-76
2020/12/26 04:27:06;;;;;;;4.12;1.85;;;;;;;1.77;84.60;101099.88;1665090;84;21210;-76
2020/12/26 04:29:32;;;;;;;5.37;1.70;;;;;;;1.78;84.65;101106.70;1656274;84;21217;-76
2020/12/26 04:31:59;;;;;;;7.37;2.30;;;;;;;1.78;84.65;101106.70;1661431;84;22175;-76
2020/12/26 04:34:25;;;;;;;2.87;2.10;;;;;;;1.79;84.62;101115.66;1665242;84;21218;-76
2020/12/26 04:36:51;;;;;;;5.22;2.30;;;;;;;1.79;84.57;101115.66;1660185;84;21182;-76
2020/12/26 04:39:21;;;;;;;6.03;2.42;;;;;;;1.78;84.59;101110.11;1665229;85;21608;-76
2020/12/26 04:41:48;;;;;;;5.37;1.65;;;;;;;1.81;84.63;101114.44;1654630;84;21226;-76
2020/12/26 04:44:15;;;;;;;6.35;2.12;;;;;;;1.81;84.61;101115.30;1664006;84;21245;-76
2020/12/26 04:46:43;;;;;;;2.83;1.75;;;;;;;1.83;84.66;101121.30;1666648;85;21158;-76
2020/12/26 04:49:11;;;;;;;2.47;1.70;;;;;;;1.83;84.57;101116.20;1657932;84;21154;-76
2020/12/26 04:51:40;;;;;;;3.67;1.95;;;;;;;1.82;84.54;101116.16;1663358;84;21163;-76
2020/12/26 04:54:26;;;;;;;5.83;1.60;;;;;;;1.83;84.59;101122.98;1671555;84;21560;-76
2020/12/26 04:56:58;;;;;;;;;;;;;;;1.82;84.58;101118.30;1659224;84;21167;-76
2020/12/26 04:59:23;;;;;;;1.60;1.47;;;;;;;1.82;84.56;101111.06;1663141;84;20286;-76
2020/12/26 05:01:51;;;;;;;2.75;1.72;;;;;;;1.81;84.57;101116.98;1638289;86;21131;-76
2020/12/26 05:04:18;;;;;;;3.42;1.95;;;;;;;1.80;84.59;101116.12;1665217;84;21209;-76
2020/12/26 05:06:47;;;;;;;;;;;;;;;1.80;84.58;101119.08;1665090;84;21230;-76
2020/12/26 05:09:15;;;;;;;5.95;1.95;;;;;;;1.78;84.56;101113.94;1661297;84;21925;-76
2020/12/26 05:11:54;;;;;;;5.05;2.08;;;;;;;1.78;84.56;101116.48;1676617;84;21226;-76
2020/12/26 05:14:22;;;;;;;6.80;2.50;;;;;;;1.78;84.62;101120.72;1653765;84;21217;-76
2020/12/26 05:16:48;;;;;;;3.27;2.20;;;;;;;1.79;84.58;101123.73;1663765;84;21241;-76
2020/12/26 05:19:14;;;;;;;2.70;1.40;;;;;;;1.78;84.58;101119.03;1655691;84;21228;-76
2020/12/26 05:21:41;;;;;;;4.75;2.20;;;;;;;1.79;84.56;101124.59;1648753;84;21671;-76
2020/12/26 05:24:09;;;;;;;;;;;;;;;1.79;84.55;101119.48;1665318;84;21635;-76
2020/12/26 05:26:45;;;;;;;3.98;1.55;;;;;;;1.79;84.53;101122.04;1659894;84;20294;-76
2020/12/26 05:29:13;;;;;;;3.77;1.70;;;;;;;1.76;84.48;101120.67;1666116;85;21238;-76
2020/12/26 05:31:49;;;;;;;3.77;1.50;;;;;;;1.72;84.50;101121.41;1665576;84;21263;-76
2020/12/26 05:34:16;;;;;;;;;;;;;;;1.70;84.49;101128.16;1668088;84;22365;-76
2020/12/26 05:36:42;;;;;;;;;;;;;;;1.68;84.50;101123.42;1659770;84;20702;-76
2020/12/26 05:39:11;;;;;;;5.03;2.58;;;;;;;1.63;84.44;101118.20;1665718;84;20283;-76
2020/12/26 05:41:43;;;;;;;5.03;2.37;;;;;;;1.56;84.42;101120.56;1665592;84;21263;-76
2020/12/26 05:44:11;;;;;;;5.28;3.02;;;;;;;1.51;84.45;101125.52;1648030;84;21231;-76
2020/12/26 05:46:41;;;;;;;5.15;2.60;;;;;;;1.47;84.46;101130.48;1651176;85;21247;-76
2020/12/26 05:49:24;;;;;;;3.85;2.75;;;;;;;1.41;84.46;101134.12;1653506;84;21167;-76
2020/12/26 05:51:53;;;;;;;7.50;2.72;;;;;;;1.38;84.53;101137.45;1665113;84;21194;-76
2020/12/26 05:54:20;;;;;;;7.72;2.98;;;;;;;1.36;84.57;101139.09;1659281;84;21663;-76
2020/12/26 05:56:46;;;;;;;4.28;2.12;;;;;;;1.34;84.59;101136.91;1664518;84;21210;-76
2020/12/26 05:59:25;;;;;;;4.53;2.20;;;;;;;1.33;84.61;101140.27;1663457;84;22017;-76
2020/12/26 06:01:55;;;;;;;4.12;2.17;;;;;;;1.34;84.68;101139.45;1658880;84;21513;-74
2020/12/26 06:04:21;;;;;;;7.17;2.40;;;;;;;1.34;84.66;101142.00;1636644;84;21189;-74
2020/12/26 06:06:52;;;;;;;2.67;1.50;;;;;;;1.35;84.68;101139.04;1665509;84;21218;-75
2020/12/26 06:09:20;;;;;;;5.08;2.58;;;;;;;1.32;84.64;101148.32;1664850;84;21630;-75
2020/12/26 06:11:52;;;;;;;3.72;1.82;;;;;;;1.32;84.69;101150.01;1645355;84;21970;-75
2020/12/26 06:14:19;;;;;;;2.27;1.52;;;;;;;1.33;84.70;101155.15;1665539;84;21221;-75
2020/12/26 06:16:51;;;;;;;3.30;1.75;;;;;;;1.34;84.72;101161.11;1639868;86;21214;-75
2020/12/26 06:19:19;;;;;;;4.45;2.20;;;;;;;1.36;84.75;101158.61;1663106;84;21231;-75
2020/12/26 06:21:51;;;;;;;2.75;1.57;;;;;;;1.37;84.74;101164.16;1673823;84;21177;-75
2020/12/26 06:24:18;;;;;;;4.30;1.70;;;;;;;1.38;84.72;101168.44;1656754;84;22024;-75
2020/12/26 06:26:49;;;;;;;5.10;1.92;;;;;;;1.37;84.67;101165.02;1662660;84;21265;-75
2020/12/26 06:29:18;;;;;;;5.75;2.25;;;;;;;1.37;84.69;101168.84;1684973;84;21140;-75
2020/12/26 06:31:49;;;;;;;3.30;1.75;;;;;;;1.37;84.66;101175.21;1660651;84;21226;-75
2020/12/26 06:34:18;;;;;;;5.22;1.80;;;;;;;1.35;84.65;101171.75;1677403;84;22295;-74
2020/12/26 06:36:45;;;;;;;2.67;1.50;;;;;;;1.32;84.59;101175.48;1663119;84;21286;-75
2020/12/26 06:39:29;;;;;;;4.30;1.57;;;;;;;1.29;84.61;101187.72;1646334;84;21258;-75
2020/12/26 06:42:18;;;;;;;4.87;1.57;;;;;;;1.28;84.63;101196.58;1658883;84;21170;-76
2020/12/26 06:44:47;;;;;;;6.35;2.27;;;;;;;1.26;84.64;101201.62;1666231;84;21146;-76
2020/12/26 06:47:38;;;;;;;8.20;2.47;;;;;;;1.26;84.68;101199.49;1664009;84;21576;-75
2020/12/26 06:50:28;;;;;;;7.28;2.80;;;;;;;1.26;84.71;101196.54;1670464;84;21270;-75
2020/12/26 06:52:55;;;;;;;4.30;2.35;;;;;;;1.23;84.70;101209.17;1635711;84;21473;-75
2020/12/26 06:55:44;;;;;;;5.97;2.50;;;;;;;1.21;84.70;101209.53;1663436;84;21158;-76
2020/12/26 06:58:27;;;;;;;5.10;2.45;;;;;;;1.19;84.67;101208.62;1668147;84;21639;-75
2020/12/26 07:00:53;;;;;;;7.28;2.58;;;;;;;1.18;84.67;101218.36;1667769;84;21900;-75
2020/12/26 07:03:28;;;;;;;5.78;2.70;;;;;;;1.16;84.70;101219.13;1655265;84;21709;-74
2020/12/26 07:05:54;;;;;;;7.78;2.17;;;;;;;1.16;84.72;101222.95;1668029;84;21193;-75
2020/12/26 07:08:27;;;;;;;5.37;2.00;;;;;;;1.12;84.67;101218.16;1665353;84;21118;-75
2020/12/26 07:10:56;;;;;;;6.20;2.12;;;;;;;1.09;84.67;101221.88;1655975;84;21533;-75
2020/12/26 07:13:50;;;;;;;6.10;2.70;;;;;;;1.05;84.65;101228.10;1661267;84;21147;-74
2020/12/26 07:16:47;;;;;;;6.85;2.47;;;;;;;1.03;84.77;101226.81;1653433;84;21670;-74
2020/12/26 07:19:44;;;;;;;4.62;2.27;;;;;;;1.06;84.81;101229.83;1664344;84;21258;-75
2020/12/26 07:22:23;;;;;;;6.72;2.55;;;;;;;1.05;84.82;101226.83;1659932;84;21611;-74
2020/12/26 07:24:54;;;;;;;9.00;2.65;;;;;;;1.07;84.84;101232.83;1665876;84;21520;-74
2020/12/26 07:27:32;;;;;;;4.90;1.95;;;;;;;1.06;84.84;101242.56;1667855;84;21226;-74
2020/12/26 07:30:12;;;;;;;4.92;2.10;;;;;;;1.08;84.86;101238.39;1666329;84;21181;-75
2020/12/26 07:32:56;;;;;;;3.15;2.08;;;;;;;1.09;84.89;101243.94;1663561;84;21636;-74
2020/12/26 07:35:27;;;;;;;6.17;2.75;;;;;;;1.10;84.87;101245.67;1664726;84;21217;-74
2020/12/26 07:38:07;;;;;;;5.15;2.02;;;;;;;1.12;84.91;101244.90;1667038;84;21504;-74
2020/12/26 07:40:40;;;;;;;7.70;2.05;;;;;;;1.12;84.90;101246.17;1634577;85;21242;-74
2020/12/26 07:43:11;;;;;;;4.37;1.95;;;;;;;1.15;84.96;101247.55;1670571;84;21252;-75
2020/12/26 07:45:40;;;;;;;5.25;1.98;;;;;;;1.18;84.94;101254.02;1665174;84;21234;-75
2020/12/26 07:48:07;;;;;;;4.72;1.62;;;;;;;1.20;84.92;101255.34;1676534;84;21147;-75
2020/12/26 07:50:36;;;;;;;3.05;1.57;;;;;;;1.20;84.93;101260.02;1669286;84;21222;-74
2020/12/26 07:53:13;;;;;;;3.60;1.77;;;;;;;1.22;84.98;101253.70;1663327;84;21747;-74
2020/12/26 07:55:39;;;;;;;;;;;;;;;1.25;85.02;101255.94;1667923;84;21206;-73
2020/12/26 07:58:15;;;;;;;2.42;1.50;;;;;;;1.28;84.97;101257.31;1666228;84;20809;-74
2020/12/26 08:00:43;;;;;;;2.17;1.37;;;;;;;1.29;84.94;101260.32;1644501;84;21787;-73
2020/12/26 08:03:12;;;;;;;7.10;1.72;;;;;;;1.30;85.00;101258.64;1662716;84;21201;-74
2020/12/26 08:05:41;;;;;;;3.90;1.30;;;;;;;1.33;85.00;101258.73;1637544;85;21154;-74
2020/12/26 08:08:21;;;;;;;3.37;1.55;;;;;;;1.34;85.01;101254.09;1668747;84;22237;-74
2020/12/26 08:10:46;;;;;;;7.03;2.40;;;;;;;1.36;84.97;101254.14;1656158;84;21065;-74
2020/12/26 08:13:16;;;;;;;2.72;1.32;;;;;;;1.38;85.00;101256.33;1665556;84;21691;-75
2020/12/26 08:15:44;;;;;;;5.42;1.98;;;;;;;1.41;85.04;101261.53;1671573;84;21194;-75
2020/12/26 08:18:10;;;;;;;6.90;1.92;;;;;;;1.44;85.04;101263.77;1665868;84;21206;-75
2020/12/26 08:20:37;;;;;;;4.53;2.35;;;;;;;1.47;85.02;101259.17;1656330;84;21217;-75
2020/12/26 08:23:04;;;;;;;6.87;2.77;;;;;;;1.46;84.91;101257.03;1656267;84;21293;-75
2020/12/26 08:25:31;;;;;;;6.83;2.77;;;;;;;1.45;84.94;101264.63;1674226;84;21140;-75
2020/12/26 08:27:58;;;;;;;8.03;2.77;;;;;;;1.44;84.91;101261.21;1676360;84;21106;-74
2020/12/26 08:30:36;;;;;;;5.45;2.40;;;;;;;1.46;84.97;101265.95;1665486;84;21126;-74
2020/12/26 08:33:19;;;;;;;5.78;2.33;;;;;;;1.48;84.98;101267.27;1672549;84;21242;-74
2020/12/26 08:36:05;;;;;;;7.45;2.37;;;;;;;1.50;84.97;101274.55;1668114;84;21190;-76
2020/12/26 08:38:44;;;;;;;5.37;2.92;;;;;;;1.53;85.02;101278.06;1658812;84;20995;-76
2020/12/26 08:41:12;;;;;;;4.87;2.12;;;;;;;1.55;85.00;101277.70;1673471;84;21226;-76
2020/12/26 08:43:40;;;;;;;3.60;2.12;;;;;;;1.56;85.00;101288.33;1662989;84;21239;-78
2020/12/26 08:46:17;;;;;;;8.40;2.25;;;;;;;1.58;84.98;101285.41;1665932;84;21238;-75
2020/12/26 08:48:44;;;;;;;6.12;1.92;;;;;;;1.61;85.03;101282.96;1653552;84;21240;-75
2020/12/26 08:51:24;;;;;;;4.12;2.22;;;;;;;1.64;84.97;101288.16;1663693;84;21234;-76
2020/12/26 08:53:53;;;;;;;3.17;1.90;;;;;;;1.67;84.99;101291.20;1665748;84;21763;-75
2020/12/26 08:56:38;;;;;;;5.20;1.90;;;;;;;1.70;84.96;101290.02;1663409;84;21214;-76
2020/12/26 08:59:05;;;;;;;5.15;2.35;;;;;;;1.73;84.99;101299.05;1671100;84;21213;-76
2020/12/26 09:01:32;;;;;;;5.58;2.22;;;;;;;1.76;84.96;101296.59;1665617;84;21199;-76
2020/12/26 09:03:58;;;;;;;3.67;2.12;;;;;;;1.79;84.92;101304.73;1656237;84;21213;-76
2020/12/26 09:06:43;;;;;;;4.20;1.67;;;;;;;1.81;84.93;101310.75;1654055;84;21237;-76
2020/12/26 09:09:19;;;;;;;2.90;1.50;;;;;;;1.84;84.88;101310.44;1662481;84;21156;-76
2020/12/26 09:11:49;;;;;;;2.70;1.22;;;;;;;1.85;84.81;101303.25;1651455;84;21309;-76
2020/12/26 09:14:20;;;;;;;6.70;2.08;;;;;;;1.85;84.78;101310.03;1651346;84;21241;-77
2020/12/26 09:16:56;;;;;;;4.62;2.00;;;;;;;1.86;84.75;101307.94;1651426;84;21225;-77
2020/12/26 09:19:22;;;;;;;3.25;1.52;;;;;;;1.89;84.73;101311.85;1670250;84;21659;-77
2020/12/26 09:21:48;;;;;;;2.42;1.37;;;;;;;1.89;84.63;101302.92;1656333;84;21207;-77
2020/12/26 09:24:20;;;;;;;4.45;1.80;;;;;;;1.92;84.67;101308.13;1650385;85;21749;-77
2020/12/26 09:26:47;;;;;;;4.87;1.50;;;;;;;1.93;84.64;101309.44;1648902;86;21226;-77
2020/12/26 09:29:24;;;;;;;6.50;1.42;;;;;;;1.96;84.66;101301.88;1658914;85;21222;-77
2020/12/26 09:31:52;;;;;;;2.45;1.50;;;;;;;1.97;84.59;101299.79;1660113;84;21236;-77
2020/12/26 09:34:24;;;;;;;2.40;1.95;;;;;;;1.96;84.51;101309.53;1657360;84;21234;-77
2020/12/26 09:37:07;;;;;;;4.37;1.65;;;;;;;1.98;84.57;101317.23;1652359;84;21659;-77
2020/12/26 09:39:34;;;;;;;4.47;1.67;;;;;;;2.01;84.60;101325.39;1649966;84;21226;-77
2020/12/26 09:42:00;;;;;;;2.37;1.40;;;;;;;2.03;84.57;101319.52;1662290;84;21179;-77
2020/12/26 09:44:27;;;;;;;2.25;1.40;;;;;;;2.03;84.50;101320.78;1660493;85;21648;-77
2020/12/26 09:47:01;;;;;;;;;;;;;;;1.99;84.51;101321.11;1654022;84;21235;-77
2020/12/26 09:49:27;;;;;;;3.52;1.67;;;;;;;2.02;84.56;101315.23;1657151;84;21899;-77
2020/12/26 09:51:53;;;;;;;3.30;1.57;;;;;;;2.03;84.56;101320.78;1661731;85;21180;-77
2020/12/26 09:54:20;;;;;;;6.03;2.50;;;;;;;2.03;84.52;101320.78;1650260;84;21209;-77
2020/12/26 09:56:46;;;;;;;10.30;4.30;;;;;;;2.06;84.67;101324.70;1659575;84;21258;-77
2020/12/26 09:59:12;;;;;;;6.72;3.35;;;;;;;2.10;84.58;101323.08;1648074;85;21206;-77
2020/12/26 10:01:39;;;;;;;9.60;3.37;;;;;;;2.11;84.58;101326.95;1655576;84;22057;-76
2020/12/26 10:04:06;;;;;;;6.55;3.17;;;;;;;2.12;84.53;101326.54;1663217;85;21234;-77
2020/12/26 10:06:32;;;;;;;;;;;;;;;2.13;84.56;101327.86;1654044;84;21209;-77
2020/12/26 10:08:58;;;;;;;6.08;1.82;;;;;;;2.15;84.48;101333.01;1654794;84;20323;-78
2020/12/26 10:11:24;;;;;;;6.67;2.22;;;;;;;2.11;84.41;101326.95;1651668;84;21230;-77
2020/12/26 10:13:51;;;;;;;4.70;2.27;;;;;;;2.06;84.34;101327.66;1656715;84;21263;-77
2020/12/26 10:16:18;;;;;;;4.67;2.17;;;;;;;2.05;84.43;101330.62;1644863;85;21566;-77
2020/12/26 10:18:46;;;;;;;2.33;1.67;;;;;;;2.01;84.43;101326.25;1661300;84;21461;-77
2020/12/26 10:21:17;;;;;;;3.22;1.72;;;;;;;2.01;84.44;101326.66;1658968;84;21556;-77
2020/12/26 10:23:44;;;;;;;4.20;2.12;;;;;;;1.98;84.42;101324.47;1631362;86;21160;-77
2020/12/26 10:26:10;;;;;;;5.35;2.02;;;;;;;2.01;84.53;101329.21;1659875;84;21942;-77
2020/12/26 10:28:37;;;;;;;5.90;2.00;;;;;;;2.06;84.62;101329.80;1658576;84;21131;-77
2020/12/26 10:31:04;;;;;;;10.43;3.12;;;;;;;2.13;84.66;101332.09;1659413;84;21146;-77
2020/12/26 10:33:30;;;;;;;3.12;1.98;;;;;;;2.21;84.72;101333.19;1660377;86;21681;-77
2020/12/26 10:35:57;;;;;;;6.78;1.85;;;;;;;2.26;84.64;101328.68;1665072;84;26448;-77
2020/12/26 10:38:23;;;;;;;3.75;1.77;;;;;;;2.32;84.57;101334.38;1635069;86;21884;-77
2020/12/26 10:40:50;;;;;;;3.75;2.15;;;;;;;2.35;84.52;101333.19;1660447;85;21474;-77
2020/12/26 10:43:16;;;;;;;;;;;;;;;2.37;84.39;101334.09;1650593;85;21159;-77
2020/12/26 10:45:42;;;;;;;5.40;1.80;;;;;;;2.38;84.36;101330.72;1656202;85;20203;-77
2020/12/26 10:48:09;;;;;;;8.88;2.25;;;;;;;2.40;84.37;101329.48;1654194;84;21127;-77
2020/12/26 10:50:35;;;;;;;7.10;3.15;;;;;;;2.45;84.67;101320.27;1663270;84;27691;-77
2020/12/26 10:53:02;;;;;;;5.22;2.10;;;;;;;2.50;84.49;101322.55;1650234;84;21135;-77
2020/12/26 10:55:28;;;;;;;4.58;2.60;;;;;;;2.55;84.46;101316.75;1648364;84;21135;-77
2020/12/26 10:57:54;;;;;;;4.50;3.08;;;;;;;2.61;84.51;101319.44;1643064;84;21163;-77
2020/12/26 11:00:21;;;;;;;17.65;7.00;;;;;;;2.68;84.55;101329.41;1655711;85;21127;-77
2020/12/26 11:02:47;;;;;;;6.72;2.70;;;;;;;2.77;84.56;101327.11;1668667;84;22506;-77
2020/12/26 11:05:13;;;;;;;7.17;3.05;;;;;;;2.82;84.48;101320.84;1673019;85;23997;-77
2020/12/26 11:07:41;;;;;;;13.40;4.67;;;;;;;2.87;84.54;101317.59;1670329;85;21133;-77
2020/12/26 11:10:08;;;;;;;8.43;4.10;;;;;;;2.91;84.33;101318.54;1669353;84;21133;-77
2020/12/26 11:12:34;;;;;;;5.67;3.12;;;;;;;2.90;84.27;101317.67;1665621;83;167745;-77
2020/12/26 11:15:00;;;;;;;3.45;2.95;;;;;;;2.89;84.13;101314.66;1658676;84;21979;-77
2020/12/26 11:17:27;;;;;;;9.03;2.80;;;;;;;2.85;84.09;101311.58;1678289;84;21219;-77
2020/12/26 11:19:53;;;;;;;6.90;1.98;;;;;;;2.85;84.10;101310.30;1701618;82;21254;-77
2020/12/26 11:22:20;;;;;;;3.47;2.60;;;;;;;2.86;84.18;101311.17;1696783;82;21520;-76
2020/12/26 11:24:46;;;;;;;5.37;2.47;;;;;;;2.85;84.12;101315.82;1695630;82;21209;-76
2020/12/26 11:27:12;;;;;;;4.97;2.08;;;;;;;2.83;84.14;101322.16;1677754;83;22439;-76
2020/12/26 11:29:39;;;;;;;5.05;2.12;;;;;;;2.85;84.19;101325.63;1651005;85;21216;-76
2020/12/26 11:32:05;;;;;;;5.08;2.70;;;;;;;2.86;84.14;101320.11;1678126;84;21203;-76
2020/12/26 11:34:31;;;;;;;6.55;2.05;;;;;;;2.89;84.17;101317.22;1668546;84;21567;-77
2020/12/26 11:36:57;;;;;;;4.35;2.42;;;;;;;2.89;84.14;101307.42;1645519;85;21258;-77
2020/12/26 11:39:24;;;;;;;3.12;2.22;;;;;;;2.92;84.21;101308.77;1637960;86;22003;-77
2020/12/26 11:41:50;;;;;;;7.00;2.80;;;;;;;2.97;84.28;101308.07;1699806;82;21737;-76